sensor_id;sensor_type;location;lat;lon;timestamp;P1;durP1;ratioP1;P2;durP2;ratioP2
70733;SDS011;58320;48.804;9.252;2023-07-02T00:01:45;6.93;;;4.40;;
70733;SDS011;58320;48.804;9.252;2023-07-02T00:04:12;8.43;;;4.57;;
70733;SDS011;58320;48.804;9.252;2023-07-02T00:06:44;9.15;;;5.35;;
70733;SDS011;58320;48.804;9.252;2023-07-02T00:09:12;8.18;;;5.03;;
70733;SDS011;58320;48.804;9.252;2023-07-02T00:11:38;7.05;;;4.85;;
70733;SDS011;58320;48.804;9.252;2023-07-02T00:14:07;8.30;;;5.50;;
70733;SDS011;58320;48.804;9.252;2023-07-02T00:16:35;10.77;;;5.78;;
70733;SDS011;58320;48.804;9.252;2023-07-02T00:19:03;7.13;;;5.53;;
70733;SDS011;58320;48.804;9.252;2023-07-02T00:21:29;8.15;;;5.35;;
70733;SDS011;58320;48.804;9.252;2023-07-02T00:23:58;9.90;;;5.45;;
70733;SDS011;58320;48.804;9.252;2023-07-02T00:26:25;8.40;;;5.33;;
70733;SDS011;58320;48.804;9.252;2023-07-02T00:28:53;8.77;;;5.60;;
70733;SDS011;58320;48.804;9.252;2023-07-02T00:31:21;10.43;;;5.10;;
70733;SDS011;58320;48.804;9.252;2023-07-02T00:33:48;8.48;;;5.15;;
70733;SDS011;58320;48.804;9.252;2023-07-02T00:36:14;8.32;;;5.47;;
70733;SDS011;58320;48.804;9.252;2023-07-02T00:38:46;9.10;;;5.27;;
70733;SDS011;58320;48.804;9.252;2023-07-02T00:41:14;7.53;;;5.03;;
70733;SDS011;58320;48.804;9.252;2023-07-02T00:43:40;7.57;;;5.28;;
70733;SDS011;58320;48.804;9.252;2023-07-02T00:46:13;7.25;;;4.97;;
70733;SDS011;58320;48.804;9.252;2023-07-02T00:48:43;7.63;;;5.20;;
70733;SDS011;58320;48.804;9.252;2023-07-02T00:51:11;8.07;;;5.27;;
70733;SDS011;58320;48.804;9.252;2023-07-02T00:53:44;7.18;;;4.45;;
70733;SDS011;58320;48.804;9.252;2023-07-02T00:56:11;7.15;;;4.68;;
70733;SDS011;58320;48.804;9.252;2023-07-02T00:58:41;7.25;;;4.45;;
70733;SDS011;58320;48.804;9.252;2023-07-02T01:01:12;6.65;;;4.45;;
70733;SDS011;58320;48.804;9.252;2023-07-02T01:06:25;7.28;;;4.05;;
70733;SDS011;58320;48.804;9.252;2023-07-02T01:08:57;5.72;;;3.58;;
70733;SDS011;58320;48.804;9.252;2023-07-02T01:11:28;7.00;;;3.95;;
70733;SDS011;58320;48.804;9.252;2023-07-02T01:16:41;6.00;;;3.77;;
70733;SDS011;58320;48.804;9.252;2023-07-02T01:19:13;6.13;;;3.65;;
70733;SDS011;58320;48.804;9.252;2023-07-02T01:21:46;7.63;;;3.70;;
70733;SDS011;58320;48.804;9.252;2023-07-02T01:24:14;6.38;;;3.70;;
70733;SDS011;58320;48.804;9.252;2023-07-02T01:26:41;8.52;;;4.40;;
70733;SDS011;58320;48.804;9.252;2023-07-02T01:29:16;6.83;;;3.27;;
70733;SDS011;58320;48.804;9.252;2023-07-02T01:31:44;5.60;;;4.00;;
70733;SDS011;58320;48.804;9.252;2023-07-02T01:34:11;5.97;;;3.80;;
70733;SDS011;58320;48.804;9.252;2023-07-02T01:36:37;7.15;;;3.63;;
70733;SDS011;58320;48.804;9.252;2023-07-02T01:39:03;6.33;;;3.70;;
70733;SDS011;58320;48.804;9.252;2023-07-02T01:41:29;5.07;;;3.45;;
70733;SDS011;58320;48.804;9.252;2023-07-02T01:43:57;4.70;;;3.17;;
70733;SDS011;58320;48.804;9.252;2023-07-02T01:46:23;6.75;;;4.00;;
70733;SDS011;58320;48.804;9.252;2023-07-02T01:48:48;8.33;;;3.97;;
70733;SDS011;58320;48.804;9.252;2023-07-02T01:51:14;6.95;;;3.65;;
70733;SDS011;58320;48.804;9.252;2023-07-02T01:53:40;6.23;;;3.63;;
70733;SDS011;58320;48.804;9.252;2023-07-02T01:56:06;5.77;;;3.97;;
70733;SDS011;58320;48.804;9.252;2023-07-02T01:58:31;5.35;;;3.53;;
70733;SDS011;58320;48.804;9.252;2023-07-02T02:00:57;8.07;;;4.57;;
70733;SDS011;58320;48.804;9.252;2023-07-02T02:03:23;6.10;;;3.90;;
70733;SDS011;58320;48.804;9.252;2023-07-02T02:05:49;5.37;;;3.40;;
70733;SDS011;58320;48.804;9.252;2023-07-02T02:08:14;5.90;;;2.87;;
70733;SDS011;58320;48.804;9.252;2023-07-02T02:10:40;5.80;;;3.28;;
70733;SDS011;58320;48.804;9.252;2023-07-02T02:13:06;5.90;;;3.47;;
70733;SDS011;58320;48.804;9.252;2023-07-02T02:15:31;5.55;;;3.85;;
70733;SDS011;58320;48.804;9.252;2023-07-02T02:17:57;5.30;;;3.43;;
70733;SDS011;58320;48.804;9.252;2023-07-02T02:20:23;6.45;;;3.72;;
70733;SDS011;58320;48.804;9.252;2023-07-02T02:22:49;4.70;;;3.40;;
70733;SDS011;58320;48.804;9.252;2023-07-02T02:25:14;5.10;;;3.33;;
70733;SDS011;58320;48.804;9.252;2023-07-02T02:27:40;6.83;;;3.40;;
70733;SDS011;58320;48.804;9.252;2023-07-02T02:30:08;5.40;;;3.27;;
70733;SDS011;58320;48.804;9.252;2023-07-02T02:32:34;5.35;;;3.13;;
70733;SDS011;58320;48.804;9.252;2023-07-02T02:34:59;5.63;;;3.30;;
70733;SDS011;58320;48.804;9.252;2023-07-02T02:37:25;6.43;;;3.30;;
70733;SDS011;58320;48.804;9.252;2023-07-02T02:39:51;5.30;;;3.50;;
70733;SDS011;58320;48.804;9.252;2023-07-02T02:42:17;6.30;;;4.00;;
70733;SDS011;58320;48.804;9.252;2023-07-02T02:44:42;9.15;;;3.03;;
70733;SDS011;58320;48.804;9.252;2023-07-02T02:47:08;5.72;;;3.40;;
70733;SDS011;58320;48.804;9.252;2023-07-02T02:49:36;6.30;;;2.97;;
70733;SDS011;58320;48.804;9.252;2023-07-02T02:52:03;6.22;;;3.20;;
70733;SDS011;58320;48.804;9.252;2023-07-02T02:54:29;6.40;;;3.17;;
70733;SDS011;58320;48.804;9.252;2023-07-02T02:56:55;6.03;;;3.50;;
70733;SDS011;58320;48.804;9.252;2023-07-02T02:59:21;6.03;;;3.83;;
70733;SDS011;58320;48.804;9.252;2023-07-02T03:01:46;5.33;;;3.57;;
70733;SDS011;58320;48.804;9.252;2023-07-02T03:04:12;5.22;;;3.60;;
70733;SDS011;58320;48.804;9.252;2023-07-02T03:06:38;5.80;;;3.13;;
70733;SDS011;58320;48.804;9.252;2023-07-02T03:09:04;5.88;;;3.80;;
70733;SDS011;58320;48.804;9.252;2023-07-02T03:11:30;6.22;;;3.22;;
70733;SDS011;58320;48.804;9.252;2023-07-02T03:13:56;6.43;;;3.10;;
70733;SDS011;58320;48.804;9.252;2023-07-02T03:16:22;7.15;;;3.40;;
70733;SDS011;58320;48.804;9.252;2023-07-02T03:18:47;6.20;;;3.10;;
70733;SDS011;58320;48.804;9.252;2023-07-02T03:21:13;5.22;;;3.28;;
70733;SDS011;58320;48.804;9.252;2023-07-02T03:23:39;7.68;;;3.60;;
70733;SDS011;58320;48.804;9.252;2023-07-02T03:26:05;7.47;;;3.43;;
70733;SDS011;58320;48.804;9.252;2023-07-02T03:28:30;7.60;;;3.40;;
70733;SDS011;58320;48.804;9.252;2023-07-02T03:30:58;9.33;;;3.20;;
70733;SDS011;58320;48.804;9.252;2023-07-02T03:33:24;6.97;;;3.45;;
70733;SDS011;58320;48.804;9.252;2023-07-02T03:35:50;5.60;;;3.20;;
70733;SDS011;58320;48.804;9.252;2023-07-02T03:38:15;6.27;;;4.00;;
70733;SDS011;58320;48.804;9.252;2023-07-02T03:40:41;8.85;;;4.20;;
70733;SDS011;58320;48.804;9.252;2023-07-02T03:43:07;6.43;;;4.10;;
70733;SDS011;58320;48.804;9.252;2023-07-02T03:45:32;9.68;;;5.28;;
70733;SDS011;58320;48.804;9.252;2023-07-02T03:47:58;10.07;;;5.03;;
70733;SDS011;58320;48.804;9.252;2023-07-02T03:50:24;11.13;;;5.57;;
70733;SDS011;58320;48.804;9.252;2023-07-02T03:52:49;9.53;;;5.03;;
70733;SDS011;58320;48.804;9.252;2023-07-02T03:55:15;12.90;;;5.72;;
70733;SDS011;58320;48.804;9.252;2023-07-02T03:57:42;10.70;;;5.30;;
70733;SDS011;58320;48.804;9.252;2023-07-02T04:00:08;10.50;;;5.47;;
70733;SDS011;58320;48.804;9.252;2023-07-02T04:02:35;11.02;;;5.95;;
70733;SDS011;58320;48.804;9.252;2023-07-02T04:05:01;10.75;;;5.53;;
70733;SDS011;58320;48.804;9.252;2023-07-02T04:07:27;12.80;;;5.68;;
70733;SDS011;58320;48.804;9.252;2023-07-02T04:09:53;10.50;;;5.57;;
70733;SDS011;58320;48.804;9.252;2023-07-02T04:12:19;10.30;;;6.07;;
70733;SDS011;58320;48.804;9.252;2023-07-02T04:14:44;10.10;;;5.77;;
70733;SDS011;58320;48.804;9.252;2023-07-02T04:17:10;11.32;;;5.90;;
70733;SDS011;58320;48.804;9.252;2023-07-02T04:19:36;11.03;;;5.60;;
70733;SDS011;58320;48.804;9.252;2023-07-02T04:22:02;10.48;;;5.43;;
70733;SDS011;58320;48.804;9.252;2023-07-02T04:24:27;8.95;;;5.65;;
70733;SDS011;58320;48.804;9.252;2023-07-02T04:26:53;12.20;;;5.47;;
70733;SDS011;58320;48.804;9.252;2023-07-02T04:29:19;11.57;;;5.47;;
70733;SDS011;58320;48.804;9.252;2023-07-02T04:31:45;10.30;;;5.30;;
70733;SDS011;58320;48.804;9.252;2023-07-02T04:36:38;6.93;;;4.00;;
70733;SDS011;58320;48.804;9.252;2023-07-02T04:39:04;9.37;;;4.30;;
70733;SDS011;58320;48.804;9.252;2023-07-02T04:41:30;9.45;;;4.20;;
70733;SDS011;58320;48.804;9.252;2023-07-02T04:43:57;7.97;;;4.63;;
70733;SDS011;58320;48.804;9.252;2023-07-02T04:46:23;10.63;;;4.47;;
70733;SDS011;58320;48.804;9.252;2023-07-02T04:48:49;9.37;;;4.07;;
70733;SDS011;58320;48.804;9.252;2023-07-02T04:51:14;10.20;;;4.68;;
70733;SDS011;58320;48.804;9.252;2023-07-02T04:53:40;11.83;;;4.70;;
70733;SDS011;58320;48.804;9.252;2023-07-02T04:56:06;7.28;;;4.20;;
70733;SDS011;58320;48.804;9.252;2023-07-02T04:58:32;8.10;;;3.90;;
70733;SDS011;58320;48.804;9.252;2023-07-02T05:00:58;9.50;;;4.40;;
70733;SDS011;58320;48.804;9.252;2023-07-02T05:03:23;7.65;;;3.90;;
70733;SDS011;58320;48.804;9.252;2023-07-02T05:05:49;8.75;;;4.25;;
70733;SDS011;58320;48.804;9.252;2023-07-02T05:08:15;8.23;;;4.20;;
70733;SDS011;58320;48.804;9.252;2023-07-02T05:10:41;8.23;;;4.10;;
70733;SDS011;58320;48.804;9.252;2023-07-02T05:13:06;9.03;;;4.70;;
70733;SDS011;58320;48.804;9.252;2023-07-02T05:15:32;10.65;;;4.03;;
70733;SDS011;58320;48.804;9.252;2023-07-02T05:17:58;8.17;;;3.90;;
70733;SDS011;58320;48.804;9.252;2023-07-02T05:20:24;6.68;;;3.65;;
70733;SDS011;58320;48.804;9.252;2023-07-02T05:22:51;6.35;;;3.60;;
70733;SDS011;58320;48.804;9.252;2023-07-02T05:25:16;6.83;;;3.47;;
70733;SDS011;58320;48.804;9.252;2023-07-02T05:27:42;6.43;;;3.72;;
70733;SDS011;58320;48.804;9.252;2023-07-02T05:30:08;6.72;;;3.35;;
70733;SDS011;58320;48.804;9.252;2023-07-02T05:32:34;8.07;;;3.70;;
70733;SDS011;58320;48.804;9.252;2023-07-02T05:35:00;7.27;;;3.40;;
70733;SDS011;58320;48.804;9.252;2023-07-02T05:37:26;6.65;;;3.38;;
70733;SDS011;58320;48.804;9.252;2023-07-02T05:39:51;8.47;;;3.13;;
70733;SDS011;58320;48.804;9.252;2023-07-02T05:42:18;6.57;;;3.67;;
70733;SDS011;58320;48.804;9.252;2023-07-02T05:44:44;5.88;;;3.40;;
70733;SDS011;58320;48.804;9.252;2023-07-02T05:47:10;6.43;;;3.97;;
70733;SDS011;58320;48.804;9.252;2023-07-02T05:49:35;6.40;;;3.50;;
70733;SDS011;58320;48.804;9.252;2023-07-02T05:52:01;8.50;;;3.70;;
70733;SDS011;58320;48.804;9.252;2023-07-02T05:54:27;7.57;;;4.17;;
70733;SDS011;58320;48.804;9.252;2023-07-02T05:56:53;9.63;;;4.38;;
70733;SDS011;58320;48.804;9.252;2023-07-02T05:59:18;8.53;;;4.23;;
70733;SDS011;58320;48.804;9.252;2023-07-02T06:01:44;9.15;;;3.75;;
70733;SDS011;58320;48.804;9.252;2023-07-02T06:04:10;9.85;;;4.03;;
70733;SDS011;58320;48.804;9.252;2023-07-02T06:06:36;9.30;;;4.23;;
70733;SDS011;58320;48.804;9.252;2023-07-02T06:09:02;7.17;;;3.60;;
70733;SDS011;58320;48.804;9.252;2023-07-02T06:11:28;11.40;;;4.32;;
70733;SDS011;58320;48.804;9.252;2023-07-02T06:13:54;9.52;;;4.30;;
70733;SDS011;58320;48.804;9.252;2023-07-02T06:16:20;10.17;;;3.93;;
70733;SDS011;58320;48.804;9.252;2023-07-02T06:18:46;10.93;;;4.10;;
70733;SDS011;58320;48.804;9.252;2023-07-02T06:21:12;11.63;;;4.20;;
70733;SDS011;58320;48.804;9.252;2023-07-02T06:23:43;9.60;;;5.00;;
70733;SDS011;58320;48.804;9.252;2023-07-02T06:26:09;10.50;;;4.38;;
70733;SDS011;58320;48.804;9.252;2023-07-02T06:28:36;11.85;;;4.63;;
70733;SDS011;58320;48.804;9.252;2023-07-02T06:31:02;14.47;;;5.73;;
70733;SDS011;58320;48.804;9.252;2023-07-02T06:33:28;9.60;;;4.50;;
70733;SDS011;58320;48.804;9.252;2023-07-02T06:35:54;9.32;;;5.10;;
70733;SDS011;58320;48.804;9.252;2023-07-02T06:38:20;12.03;;;5.13;;
70733;SDS011;58320;48.804;9.252;2023-07-02T06:40:46;13.43;;;5.63;;
70733;SDS011;58320;48.804;9.252;2023-07-02T06:43:11;11.00;;;5.37;;
70733;SDS011;58320;48.804;9.252;2023-07-02T06:45:37;14.27;;;5.88;;
70733;SDS011;58320;48.804;9.252;2023-07-02T06:48:03;14.00;;;5.70;;
70733;SDS011;58320;48.804;9.252;2023-07-02T06:50:28;13.23;;;5.70;;
70733;SDS011;58320;48.804;9.252;2023-07-02T06:52:54;12.07;;;6.00;;
70733;SDS011;58320;48.804;9.252;2023-07-02T06:55:20;13.57;;;5.73;;
70733;SDS011;58320;48.804;9.252;2023-07-02T06:57:46;13.02;;;6.07;;
70733;SDS011;58320;48.804;9.252;2023-07-02T07:00:12;18.05;;;6.57;;
70733;SDS011;58320;48.804;9.252;2023-07-02T07:02:39;17.97;;;6.87;;
70733;SDS011;58320;48.804;9.252;2023-07-02T07:05:05;15.70;;;6.45;;
70733;SDS011;58320;48.804;9.252;2023-07-02T07:07:31;16.48;;;7.18;;
70733;SDS011;58320;48.804;9.252;2023-07-02T07:09:57;17.00;;;6.78;;
70733;SDS011;58320;48.804;9.252;2023-07-02T07:12:23;16.43;;;6.40;;
70733;SDS011;58320;48.804;9.252;2023-07-02T07:14:49;13.15;;;6.93;;
70733;SDS011;58320;48.804;9.252;2023-07-02T07:17:14;18.67;;;7.03;;
70733;SDS011;58320;48.804;9.252;2023-07-02T07:19:40;16.20;;;6.97;;
70733;SDS011;58320;48.804;9.252;2023-07-02T07:22:06;19.07;;;7.97;;
70733;SDS011;58320;48.804;9.252;2023-07-02T07:24:31;14.48;;;6.68;;
70733;SDS011;58320;48.804;9.252;2023-07-02T07:26:57;15.70;;;7.23;;
70733;SDS011;58320;48.804;9.252;2023-07-02T07:29:23;18.85;;;8.35;;
70733;SDS011;58320;48.804;9.252;2023-07-02T07:31:49;18.50;;;7.43;;
70733;SDS011;58320;48.804;9.252;2023-07-02T07:34:15;16.88;;;8.00;;
70733;SDS011;58320;48.804;9.252;2023-07-02T07:36:41;15.20;;;7.67;;
70733;SDS011;58320;48.804;9.252;2023-07-02T07:39:06;16.95;;;8.32;;
70733;SDS011;58320;48.804;9.252;2023-07-02T07:41:32;18.80;;;8.83;;
70733;SDS011;58320;48.804;9.252;2023-07-02T07:43:58;14.73;;;8.23;;
70733;SDS011;58320;48.804;9.252;2023-07-02T07:46:25;20.65;;;9.05;;
70733;SDS011;58320;48.804;9.252;2023-07-02T07:48:50;16.73;;;8.13;;
70733;SDS011;58320;48.804;9.252;2023-07-02T07:51:16;19.80;;;9.18;;
70733;SDS011;58320;48.804;9.252;2023-07-02T07:53:42;19.03;;;9.20;;
70733;SDS011;58320;48.804;9.252;2023-07-02T07:56:08;22.25;;;9.90;;
70733;SDS011;58320;48.804;9.252;2023-07-02T07:58:33;17.95;;;9.48;;
70733;SDS011;58320;48.804;9.252;2023-07-02T08:00:59;18.53;;;9.07;;
70733;SDS011;58320;48.804;9.252;2023-07-02T08:03:25;20.55;;;9.60;;
70733;SDS011;58320;48.804;9.252;2023-07-02T08:05:51;19.03;;;10.07;;
70733;SDS011;58320;48.804;9.252;2023-07-02T08:08:16;21.30;;;9.60;;
70733;SDS011;58320;48.804;9.252;2023-07-02T08:10:42;19.67;;;9.57;;
70733;SDS011;58320;48.804;9.252;2023-07-02T08:13:08;14.97;;;8.40;;
70733;SDS011;58320;48.804;9.252;2023-07-02T08:15:34;17.45;;;9.38;;
70733;SDS011;58320;48.804;9.252;2023-07-02T08:18:00;20.27;;;9.52;;
70733;SDS011;58320;48.804;9.252;2023-07-02T08:20:25;20.07;;;9.97;;
70733;SDS011;58320;48.804;9.252;2023-07-02T08:22:51;19.45;;;9.55;;
70733;SDS011;58320;48.804;9.252;2023-07-02T08:25:17;20.55;;;10.07;;
70733;SDS011;58320;48.804;9.252;2023-07-02T08:27:44;22.57;;;10.00;;
70733;SDS011;58320;48.804;9.252;2023-07-02T08:30:10;17.93;;;8.93;;
70733;SDS011;58320;48.804;9.252;2023-07-02T08:32:36;16.80;;;9.23;;
70733;SDS011;58320;48.804;9.252;2023-07-02T08:35:02;24.73;;;9.50;;
70733;SDS011;58320;48.804;9.252;2023-07-02T08:37:28;20.60;;;9.65;;
70733;SDS011;58320;48.804;9.252;2023-07-02T08:39:54;19.63;;;8.98;;
70733;SDS011;58320;48.804;9.252;2023-07-02T08:42:20;18.40;;;8.93;;
70733;SDS011;58320;48.804;9.252;2023-07-02T08:44:46;17.70;;;8.67;;
70733;SDS011;58320;48.804;9.252;2023-07-02T08:47:12;21.20;;;9.65;;
70733;SDS011;58320;48.804;9.252;2023-07-02T08:49:39;18.98;;;9.27;;
70733;SDS011;58320;48.804;9.252;2023-07-02T08:52:05;19.58;;;9.10;;
70733;SDS011;58320;48.804;9.252;2023-07-02T08:54:31;22.23;;;9.73;;
70733;SDS011;58320;48.804;9.252;2023-07-02T08:56:57;18.47;;;8.80;;
70733;SDS011;58320;48.804;9.252;2023-07-02T08:59:23;18.73;;;8.80;;
70733;SDS011;58320;48.804;9.252;2023-07-02T09:01:50;17.77;;;8.73;;
70733;SDS011;58320;48.804;9.252;2023-07-02T09:04:18;15.55;;;8.18;;
70733;SDS011;58320;48.804;9.252;2023-07-02T09:07:12;18.02;;;8.35;;
70733;SDS011;58320;48.804;9.252;2023-07-02T09:09:50;17.23;;;8.60;;
70733;SDS011;58320;48.804;9.252;2023-07-02T09:12:31;15.80;;;7.82;;
70733;SDS011;58320;48.804;9.252;2023-07-02T09:14:58;15.00;;;8.07;;
70733;SDS011;58320;48.804;9.252;2023-07-02T09:17:29;14.80;;;7.40;;
70733;SDS011;58320;48.804;9.252;2023-07-02T09:20:01;20.77;;;7.78;;
70733;SDS011;58320;48.804;9.252;2023-07-02T09:22:32;15.90;;;8.13;;
70733;SDS011;58320;48.804;9.252;2023-07-02T09:24:58;15.00;;;8.20;;
70733;SDS011;58320;48.804;9.252;2023-07-02T09:32:36;19.20;;;8.50;;
70733;SDS011;58320;48.804;9.252;2023-07-02T09:35:03;16.38;;;8.05;;
70733;SDS011;58320;48.804;9.252;2023-07-02T09:37:30;17.33;;;8.57;;
70733;SDS011;58320;48.804;9.252;2023-07-02T09:39:56;17.17;;;8.83;;
70733;SDS011;58320;48.804;9.252;2023-07-02T09:42:22;15.18;;;7.68;;
70733;SDS011;58320;48.804;9.252;2023-07-02T09:44:54;15.85;;;8.77;;
70733;SDS011;58320;48.804;9.252;2023-07-02T09:47:21;18.75;;;8.48;;
70733;SDS011;58320;48.804;9.252;2023-07-02T09:49:58;13.73;;;7.63;;
70733;SDS011;58320;48.804;9.252;2023-07-02T09:52:28;15.00;;;8.07;;
70733;SDS011;58320;48.804;9.252;2023-07-02T09:54:54;15.20;;;7.90;;
70733;SDS011;58320;48.804;9.252;2023-07-02T09:57:20;18.48;;;8.73;;
70733;SDS011;58320;48.804;9.252;2023-07-02T09:59:46;14.65;;;8.60;;
70733;SDS011;58320;48.804;9.252;2023-07-02T10:02:12;15.90;;;8.85;;
70733;SDS011;58320;48.804;9.252;2023-07-02T10:04:45;16.30;;;8.30;;
70733;SDS011;58320;48.804;9.252;2023-07-02T10:07:13;17.13;;;8.77;;
70733;SDS011;58320;48.804;9.252;2023-07-02T10:09:55;15.80;;;7.97;;
70733;SDS011;58320;48.804;9.252;2023-07-02T10:12:24;16.65;;;8.32;;
70733;SDS011;58320;48.804;9.252;2023-07-02T10:14:52;17.20;;;8.82;;
70733;SDS011;58320;48.804;9.252;2023-07-02T10:19:54;18.45;;;8.77;;
70733;SDS011;58320;48.804;9.252;2023-07-02T10:22:42;17.10;;;9.07;;
70733;SDS011;58320;48.804;9.252;2023-07-02T10:25:09;17.85;;;8.70;;
70733;SDS011;58320;48.804;9.252;2023-07-02T10:27:35;18.67;;;8.52;;
70733;SDS011;58320;48.804;9.252;2023-07-02T10:30:04;16.58;;;9.50;;
70733;SDS011;58320;48.804;9.252;2023-07-02T10:32:32;16.10;;;9.43;;
70733;SDS011;58320;48.804;9.252;2023-07-02T10:35:00;15.68;;;8.52;;
70733;SDS011;58320;48.804;9.252;2023-07-02T10:37:42;19.70;;;8.70;;
70733;SDS011;58320;48.804;9.252;2023-07-02T10:40:08;19.83;;;9.63;;
70733;SDS011;58320;48.804;9.252;2023-07-02T10:42:48;16.60;;;8.55;;
70733;SDS011;58320;48.804;9.252;2023-07-02T10:45:16;16.80;;;8.68;;
70733;SDS011;58320;48.804;9.252;2023-07-02T10:47:43;17.50;;;8.93;;
70733;SDS011;58320;48.804;9.252;2023-07-02T10:52:45;15.63;;;9.10;;
70733;SDS011;58320;48.804;9.252;2023-07-02T10:55:22;14.43;;;8.70;;
70733;SDS011;58320;48.804;9.252;2023-07-02T10:57:50;17.47;;;9.33;;
70733;SDS011;58320;48.804;9.252;2023-07-02T11:00:31;15.93;;;9.00;;
70733;SDS011;58320;48.804;9.252;2023-07-02T11:02:58;17.23;;;9.32;;
70733;SDS011;58320;48.804;9.252;2023-07-02T11:05:24;14.80;;;8.25;;
70733;SDS011;58320;48.804;9.252;2023-07-02T11:07:50;16.17;;;9.18;;
70733;SDS011;58320;48.804;9.252;2023-07-02T11:10:22;16.97;;;9.77;;
70733;SDS011;58320;48.804;9.252;2023-07-02T11:12:49;16.30;;;9.50;;
70733;SDS011;58320;48.804;9.252;2023-07-02T11:15:15;19.75;;;10.57;;
70733;SDS011;58320;48.804;9.252;2023-07-02T11:17:45;17.33;;;10.02;;
70733;SDS011;58320;48.804;9.252;2023-07-02T11:20:12;16.90;;;9.65;;
70733;SDS011;58320;48.804;9.252;2023-07-02T11:22:40;14.88;;;8.52;;
70733;SDS011;58320;48.804;9.252;2023-07-02T11:25:19;16.92;;;9.50;;
70733;SDS011;58320;48.804;9.252;2023-07-02T11:27:45;17.27;;;9.10;;
70733;SDS011;58320;48.804;9.252;2023-07-02T11:30:11;17.87;;;9.53;;
70733;SDS011;58320;48.804;9.252;2023-07-02T11:32:51;17.70;;;8.90;;
70733;SDS011;58320;48.804;9.252;2023-07-02T11:35:21;16.77;;;8.68;;
70733;SDS011;58320;48.804;9.252;2023-07-02T11:37:47;16.27;;;9.00;;
70733;SDS011;58320;48.804;9.252;2023-07-02T11:40:14;16.08;;;9.23;;
70733;SDS011;58320;48.804;9.252;2023-07-02T11:42:42;16.23;;;9.68;;
70733;SDS011;58320;48.804;9.252;2023-07-02T11:45:09;14.95;;;8.77;;
70733;SDS011;58320;48.804;9.252;2023-07-02T11:47:35;16.55;;;9.70;;
70733;SDS011;58320;48.804;9.252;2023-07-02T11:50:02;16.97;;;9.13;;
70733;SDS011;58320;48.804;9.252;2023-07-02T11:52:28;15.55;;;9.02;;
70733;SDS011;58320;48.804;9.252;2023-07-02T11:54:54;15.30;;;9.35;;
70733;SDS011;58320;48.804;9.252;2023-07-02T11:57:20;14.10;;;8.80;;
70733;SDS011;58320;48.804;9.252;2023-07-02T11:59:47;16.13;;;8.70;;
70733;SDS011;58320;48.804;9.252;2023-07-02T12:02:14;15.03;;;9.00;;
70733;SDS011;58320;48.804;9.252;2023-07-02T12:04:40;14.68;;;9.20;;
70733;SDS011;58320;48.804;9.252;2023-07-02T12:07:06;14.68;;;9.25;;
70733;SDS011;58320;48.804;9.252;2023-07-02T12:09:32;17.80;;;9.57;;
70733;SDS011;58320;48.804;9.252;2023-07-02T12:11:57;15.80;;;9.43;;
70733;SDS011;58320;48.804;9.252;2023-07-02T12:14:23;15.40;;;9.55;;
70733;SDS011;58320;48.804;9.252;2023-07-02T12:16:49;15.10;;;9.20;;
70733;SDS011;58320;48.804;9.252;2023-07-02T12:19:14;16.10;;;9.38;;
70733;SDS011;58320;48.804;9.252;2023-07-02T12:21:40;15.63;;;9.40;;
70733;SDS011;58320;48.804;9.252;2023-07-02T12:24:06;15.57;;;9.40;;
70733;SDS011;58320;48.804;9.252;2023-07-02T12:26:35;17.58;;;10.20;;
70733;SDS011;58320;48.804;9.252;2023-07-02T12:29:01;15.65;;;9.35;;
70733;SDS011;58320;48.804;9.252;2023-07-02T12:31:27;16.02;;;9.60;;
70733;SDS011;58320;48.804;9.252;2023-07-02T12:33:52;15.50;;;10.03;;
70733;SDS011;58320;48.804;9.252;2023-07-02T12:36:18;15.45;;;9.48;;
70733;SDS011;58320;48.804;9.252;2023-07-02T12:38:44;18.50;;;9.27;;
70733;SDS011;58320;48.804;9.252;2023-07-02T12:41:10;15.90;;;9.90;;
70733;SDS011;58320;48.804;9.252;2023-07-02T12:43:35;16.52;;;9.18;;
70733;SDS011;58320;48.804;9.252;2023-07-02T12:46:01;20.73;;;9.70;;
70733;SDS011;58320;48.804;9.252;2023-07-02T12:48:27;16.17;;;9.60;;
70733;SDS011;58320;48.804;9.252;2023-07-02T12:50:56;16.30;;;10.53;;
70733;SDS011;58320;48.804;9.252;2023-07-02T12:53:26;15.17;;;9.53;;
70733;SDS011;58320;48.804;9.252;2023-07-02T12:55:53;16.85;;;10.32;;
70733;SDS011;58320;48.804;9.252;2023-07-02T12:58:20;15.82;;;9.93;;
70733;SDS011;58320;48.804;9.252;2023-07-02T13:00:46;15.77;;;9.15;;
70733;SDS011;58320;48.804;9.252;2023-07-02T13:03:13;17.58;;;9.50;;
70733;SDS011;58320;48.804;9.252;2023-07-02T13:05:39;15.32;;;9.32;;
70733;SDS011;58320;48.804;9.252;2023-07-02T13:08:05;16.10;;;9.85;;
70733;SDS011;58320;48.804;9.252;2023-07-02T13:10:32;14.93;;;9.63;;
70733;SDS011;58320;48.804;9.252;2023-07-02T13:12:58;14.57;;;8.67;;
70733;SDS011;58320;48.804;9.252;2023-07-02T13:15:25;16.50;;;10.80;;
70733;SDS011;58320;48.804;9.252;2023-07-02T13:17:51;17.13;;;9.73;;
70733;SDS011;58320;48.804;9.252;2023-07-02T13:20:17;14.77;;;9.75;;
70733;SDS011;58320;48.804;9.252;2023-07-02T13:22:42;14.50;;;9.50;;
70733;SDS011;58320;48.804;9.252;2023-07-02T13:25:08;15.57;;;9.63;;
70733;SDS011;58320;48.804;9.252;2023-07-02T13:27:34;16.00;;;10.18;;
70733;SDS011;58320;48.804;9.252;2023-07-02T13:30:00;17.08;;;10.32;;
70733;SDS011;58320;48.804;9.252;2023-07-02T13:32:27;16.35;;;10.10;;
70733;SDS011;58320;48.804;9.252;2023-07-02T13:34:52;14.67;;;8.90;;
70733;SDS011;58320;48.804;9.252;2023-07-02T13:37:18;16.90;;;9.18;;
70733;SDS011;58320;48.804;9.252;2023-07-02T13:39:47;17.43;;;9.70;;
70733;SDS011;58320;48.804;9.252;2023-07-02T13:42:14;15.17;;;10.03;;
70733;SDS011;58320;48.804;9.252;2023-07-02T13:44:41;16.10;;;9.63;;
70733;SDS011;58320;48.804;9.252;2023-07-02T13:47:07;14.90;;;9.45;;
70733;SDS011;58320;48.804;9.252;2023-07-02T13:49:33;14.77;;;9.57;;
70733;SDS011;58320;48.804;9.252;2023-07-02T13:51:59;14.13;;;9.63;;
70733;SDS011;58320;48.804;9.252;2023-07-02T13:54:25;17.02;;;9.88;;
70733;SDS011;58320;48.804;9.252;2023-07-02T13:56:51;15.80;;;9.23;;
70733;SDS011;58320;48.804;9.252;2023-07-02T13:59:18;15.60;;;10.00;;
70733;SDS011;58320;48.804;9.252;2023-07-02T14:01:45;16.90;;;9.40;;
70733;SDS011;58320;48.804;9.252;2023-07-02T14:04:12;15.40;;;9.65;;
70733;SDS011;58320;48.804;9.252;2023-07-02T14:06:39;15.47;;;9.60;;
70733;SDS011;58320;48.804;9.252;2023-07-02T14:09:05;15.90;;;9.97;;
70733;SDS011;58320;48.804;9.252;2023-07-02T14:11:31;14.48;;;9.63;;
70733;SDS011;58320;48.804;9.252;2023-07-02T14:14:00;15.75;;;10.00;;
70733;SDS011;58320;48.804;9.252;2023-07-02T14:16:25;17.50;;;10.25;;
70733;SDS011;58320;48.804;9.252;2023-07-02T14:18:51;16.13;;;9.80;;
70733;SDS011;58320;48.804;9.252;2023-07-02T14:21:17;16.93;;;9.37;;
70733;SDS011;58320;48.804;9.252;2023-07-02T14:23:43;16.33;;;9.60;;
70733;SDS011;58320;48.804;9.252;2023-07-02T14:26:09;14.57;;;9.45;;
70733;SDS011;58320;48.804;9.252;2023-07-02T14:28:35;15.07;;;9.80;;
70733;SDS011;58320;48.804;9.252;2023-07-02T14:31:03;14.05;;;9.20;;
70733;SDS011;58320;48.804;9.252;2023-07-02T14:33:33;16.45;;;9.70;;
70733;SDS011;58320;48.804;9.252;2023-07-02T14:36:01;16.07;;;9.57;;
70733;SDS011;58320;48.804;9.252;2023-07-02T14:38:27;16.20;;;9.70;;
70733;SDS011;58320;48.804;9.252;2023-07-02T14:40:54;14.93;;;9.48;;
70733;SDS011;58320;48.804;9.252;2023-07-02T14:43:22;15.63;;;10.30;;
70733;SDS011;58320;48.804;9.252;2023-07-02T14:45:52;16.95;;;9.90;;
70733;SDS011;58320;48.804;9.252;2023-07-02T14:48:21;15.75;;;9.10;;
70733;SDS011;58320;48.804;9.252;2023-07-02T14:50:48;16.98;;;9.43;;
70733;SDS011;58320;48.804;9.252;2023-07-02T14:53:16;15.48;;;10.00;;
70733;SDS011;58320;48.804;9.252;2023-07-02T14:55:43;16.33;;;9.68;;